Stations météo

Publicité
Rodkallen, Suède (2188): Température de l'air & dewpoint: 23.01.2020 18:00:00 - 29.01.2020 18:00:00 (CET)Rodkallen, Suède (2188): Vitesse du vent & gusts: 23.01.2020 18:00:00 - 29.01.2020 18:00:00 (CET)Rodkallen, Suède (2188): Direction du vent: 23.01.2020 18:00:00 - 29.01.2020 18:00:00 (CET)Rodkallen, Suède (2188): visibility: 23.01.2020 18:00:00 - 29.01.2020 18:00:00 (CET)Rodkallen, Suède (2188): Quantités de précipitations: 23.01.2020 18:00:00 - 29.01.2020 18:00:00 (CET)
Date & Time tt [°C] td [°C] ff [km/h] ff [knt] fx [km/h] fx [knt] dd vv [km] rr [mm]
29.01.2020 18:00:00 -3,9 -5,1 33 18 41 22 ENE 1,8 0,2
29.01.2020 17:00:00 -5,3 -6,5 31 17 40 22 NE 1,9 0,4
29.01.2020 16:00:00 -5,6 -7,1 36 19 44 24 NE 5 0,0
29.01.2020 15:00:00 -5,9 -7,4 36 19 42 23 NNE 3,4 0,0
29.01.2020 14:00:00 -5,6 -7,4 32 17 41 22 NE 6 -
29.01.2020 13:00:00 -6,0 -7,7 32 17 41 22 NNE 9 0,1
29.01.2020 12:00:00 -6,1 -7,6 33 18 41 22 NNE 4,5 0,0
29.01.2020 11:00:00 -6,7 -8,4 36 20 42 23 NNE 2,5 0,2
29.01.2020 10:00:00 -6,8 -8,4 35 19 42 23 NNE 3,6 0,2
29.01.2020 09:00:00 -6,7 -8,5 34 18 39 21 NNE 2,1 0,0
29.01.2020 08:00:00 -6,6 -8,5 34 18 41 22 NNE 12 0,0
29.01.2020 07:00:00 -6,6 -8,5 34 18 42 23 NNE 13 0,0
29.01.2020 06:00:00 -6,4 -8,2 32 17 39 21 NNE 15 0,0
29.01.2020 05:00:00 -6,7 -8,5 30 16 40 21 NNE 17 0,0
29.01.2020 04:00:00 -6,5 -8,2 31 17 40 22 N 14 0,0
29.01.2020 03:00:00 -5,9 -7,6 27 15 37 20 N 22 0,0
29.01.2020 02:00:00 -5,8 -7,3 29 16 39 21 N 17 0,0
29.01.2020 01:00:00 -6,0 -7,5 30 16 40 22 N 16 0,0
29.01.2020 00:00:00 -6,1 -7,5 32 17 39 21 N 10 0,1
28.01.2020 23:00:00 -6,2 -7,6 32 17 38 20 N 2,2 0,2
28.01.2020 22:00:00 -6,0 -7,4 30 16 39 21 N 7 -
28.01.2020 21:00:00 -5,7 -7,1 32 17 40 22 N 4,3 0,3
28.01.2020 20:00:00 -5,6 -7,0 31 17 39 21 N 3,5 0,2
28.01.2020 19:00:00 -5,5 -7,0 29 16 42 23 NNE 7 0,0
28.01.2020 18:00:00 -3,8 -6,1 20 11 29 16 ENE 16 0,0
28.01.2020 17:00:00 -3,8 -5,9 24 13 30 16 ENE 5 -
28.01.2020 16:00:00 -3,7 -5,6 26 14 32 18 ENE 11 0,0
28.01.2020 15:00:00 -3,8 -5,5 25 14 32 17 ENE 4,3 0,1
28.01.2020 14:00:00 -3,6 -5,1 26 14 34 18 ENE 2,9 0,1
28.01.2020 13:00:00 -3,8 -5,5 28 15 37 20 ENE 2,5 0,1
28.01.2020 12:00:00 -3,8 -5,2 29 16 37 20 ENE 1,5 0,3
28.01.2020 11:00:00 -3,9 -5,3 31 17 39 21 E 1,9 0,2
28.01.2020 10:00:00 -3,9 -5,4 31 17 38 20 E 1,9 0,4
28.01.2020 09:00:00 -4,0 -5,5 31 17 38 20 E 1,0 0,4
28.01.2020 08:00:00 -4,1 -5,8 31 17 37 20 E 2,6 0,2
28.01.2020 07:00:00 -4,1 -5,8 29 16 38 20 E 2,1 0,4
28.01.2020 06:00:00 -4,1 -6,1 30 16 39 21 E 4,2 0,0
28.01.2020 05:00:00 -4,2 -6,0 30 16 39 21 E 3,0 0,2
28.01.2020 04:00:00 -4,4 -6,0 32 17 40 21 E 1,7 0,3
28.01.2020 03:00:00 -4,5 -6,0 32 17 39 21 E 2,4 0,5
28.01.2020 02:00:00 -4,4 -6,4 29 16 40 22 E 2,7 0,2
28.01.2020 01:00:00 -4,6 -6,3 33 18 40 22 E 2,2 0,4
28.01.2020 00:00:00 -4,7 -6,4 31 17 40 22 E 1,8 0,3
27.01.2020 23:00:00 -4,7 -7,0 32 17 41 22 E 5 0,1
27.01.2020 22:00:00 -4,8 -7,0 35 19 45 24 E 2,6 0,0
27.01.2020 21:00:00 -5,1 -7,1 38 21 46 25 E 2,0 0,0
27.01.2020 20:00:00 -5,1 -7,1 36 19 50 27 E 3,1 0,0
27.01.2020 19:00:00 -4,8 -7,1 36 19 51 28 E 5 0,0
27.01.2020 18:00:00 -4,6 -7,0 39 21 52 28 E 10 0,0
27.01.2020 17:00:00 -4,6 -7,0 36 20 46 25 E 6 0,0
27.01.2020 16:00:00 -4,8 -7,0 31 17 40 22 E 9 0,1
27.01.2020 15:00:00 -4,7 -6,7 29 16 39 21 E 6 0,1
27.01.2020 14:00:00 -4,6 -6,6 31 17 40 22 E 2,7 0,1
27.01.2020 13:00:00 -4,6 -6,9 29 16 41 22 E 3,7 0,0
27.01.2020 12:00:00 -4,6 -7,4 33 18 40 21 E 3,9 0,0
27.01.2020 11:00:00 -4,7 -7,6 29 15 40 22 E 14 0,0
27.01.2020 10:00:00 -4,8 -8,1 30 16 42 23 E 27 0,0
27.01.2020 09:00:00 -4,8 -8,2 26 14 34 18 E 49 0,0
27.01.2020 08:00:00 -4,9 -8,8 24 13 34 18 E 50 0,0
27.01.2020 07:00:00 -5,1 -8,0 24 13 34 18 E 50 0,0
27.01.2020 06:00:00 -5,4 -8,0 27 15 35 19 E 50 0,0
27.01.2020 05:00:00 -5,4 -7,7 25 14 34 18 E 50 0,0
27.01.2020 04:00:00 -5,9 -8,0 25 14 30 16 ENE 50 0,0
27.01.2020 03:00:00 -6,5 -8,3 21 12 30 16 ENE 50 0,0
27.01.2020 02:00:00 -7,3 -8,9 21 12 27 15 NE 21 0,0
27.01.2020 01:00:00 -7,5 -9,3 21 12 26 14 NE 32 0,0
27.01.2020 00:00:00 -7,8 -9,7 19 10 27 14 NE 50 0,0
26.01.2020 23:00:00 -7,9 -10,0 19 11 28 15 NE 50 0,0
26.01.2020 22:00:00 -8,1 -9,8 19 11 26 14 NE 50 0,0
26.01.2020 21:00:00 -9,3 -10,9 19 10 24 13 NNE 50 0,0
26.01.2020 20:00:00 -10,1 -12,3 16 8 21 11 N 50 0,0
26.01.2020 19:00:00 -10,5 -12,8 15 8 20 11 N 50 0,0
26.01.2020 18:00:00 -10,2 -12,7 16 9 29 16 N 50 0,0
26.01.2020 17:00:00 -10,3 -12,9 24 13 28 15 N 50 0,0
26.01.2020 16:00:00 -10,4 -13,0 20 11 26 14 N 50 0,0
26.01.2020 15:00:00 -10,0 -12,3 22 12 31 17 N 50 0,0
26.01.2020 14:00:00 -10,2 -12,7 23 13 29 16 N 50 0,0
26.01.2020 13:00:00 -10,3 -12,8 23 12 33 18 N 50 0,0
26.01.2020 12:00:00 -10,2 -12,5 27 14 34 18 N 50 0,0
26.01.2020 11:00:00 -9,3 -11,8 22 12 36 19 N 50 0,0
26.01.2020 10:00:00 -8,9 -11,0 29 16 41 22 N 50 0,0
26.01.2020 09:00:00 -8,4 -10,3 32 17 38 21 N 50 0,0
26.01.2020 08:00:00 -8,0 -9,8 29 16 40 21 N 50 0,0
26.01.2020 07:00:00 -7,6 -9,2 33 18 43 23 N 50 0,0
26.01.2020 06:00:00 -7,6 -9,2 30 16 41 22 N 50 0,0
26.01.2020 05:00:00 -7,2 -8,6 31 17 39 21 NNE 40 0,0
26.01.2020 04:00:00 -6,9 -8,2 31 17 39 21 NE 50 0,0
26.01.2020 03:00:00 -7,2 -8,3 27 15 35 19 NE 50 0,0
26.01.2020 02:00:00 -6,1 -7,2 28 15 35 19 NE 18 0,0
26.01.2020 01:00:00 -6,5 -7,6 24 13 29 16 NNE - 0,0
26.01.2020 00:00:00 -5,5 -6,5 24 13 29 16 NNE 3,8 0,0
25.01.2020 23:00:00 -5,9 -7,1 16 9 21 11 N 50 0,0
25.01.2020 22:00:00 -3,0 -5,9 9 5 11 6 W 50 0,0
25.01.2020 21:00:00 -2,9 -5,7 8 4 11 6 W 50 0,0
25.01.2020 20:00:00 -2,5 -5,8 10 6 12 7 SW 50 0,0
25.01.2020 19:00:00 -2,6 -6,1 6 3 9 5 SW 50 0,0
25.01.2020 18:00:00 -3,4 -6,8 6 4 13 7 WNW 50 0,0
25.01.2020 17:00:00 -2,2 -5,5 10 6 16 9 W 50 0,0
25.01.2020 16:00:00 -2,4 -5,9 15 8 22 12 W 50 0,0
25.01.2020 15:00:00 -2,2 -6,0 16 9 23 12 W 50 0,0
25.01.2020 14:00:00 -2,2 -5,9 16 9 24 13 W 50 0,0
25.01.2020 13:00:00 -2,4 -6,2 20 11 28 15 W 50 0,0
25.01.2020 12:00:00 -2,6 -6,4 23 12 33 18 WNW 50 0,0
25.01.2020 11:00:00 -2,5 -6,3 26 14 34 18 W 50 0,0
25.01.2020 10:00:00 -2,5 -6,1 26 14 34 19 W 50 0,0
25.01.2020 09:00:00 -2,7 -6,5 27 14 34 19 WNW 50 0,0
25.01.2020 08:00:00 -2,3 -5,8 23 13 37 20 WNW 50 0,0
25.01.2020 07:00:00 -2,5 -6,5 30 16 42 23 WNW 50 0,0
25.01.2020 06:00:00 -3,8 -7,8 18 10 40 21 NW 50 0,0
25.01.2020 05:00:00 -3,6 -7,7 24 13 40 22 NW 50 0,0
25.01.2020 04:00:00 -3,2 -7,1 26 14 40 22 NW 50 0,0
25.01.2020 03:00:00 -2,2 -6,2 27 15 41 22 WNW 50 0,0
25.01.2020 02:00:00 -1,7 -5,9 30 16 37 20 W 50 0,0
25.01.2020 01:00:00 -1,5 -5,2 21 11 32 18 W 50 0,0
25.01.2020 00:00:00 -1,1 -5,1 23 13 30 16 W 50 0,0
24.01.2020 23:00:00 -0,9 -4,3 16 9 23 13 W 50 0,0
24.01.2020 22:00:00 -0,4 -3,0 16 9 22 12 W 50 0,0
24.01.2020 21:00:00 -0,5 -2,7 17 9 21 11 WSW 50 0,0
24.01.2020 20:00:00 -0,4 -2,6 15 8 31 17 WSW 50 0,0
24.01.2020 19:00:00 -0,3 -2,5 24 13 30 16 SW 50 0,0
24.01.2020 18:00:00 -0,2 -2,9 23 12 28 15 SW 50 0,0
24.01.2020 17:00:00 0,0 -3,4 21 11 35 19 WSW 50 0,0
24.01.2020 16:00:00 -0,1 -3,3 19 10 37 20 SW 50 0,0
24.01.2020 15:00:00 0,0 -3,7 27 15 35 19 WSW 50 0,0
24.01.2020 14:00:00 -0,1 -3,8 24 13 44 24 WSW 50 0,0
24.01.2020 13:00:00 0,1 -4,0 29 15 37 20 WSW 43 0,0
24.01.2020 12:00:00 -0,2 -3,6 29 16 49 26 W 46 0,0
24.01.2020 11:00:00 -0,3 -4,0 40 21 61 33 W 42 0,0
24.01.2020 10:00:00 -0,4 -3,9 42 23 59 32 W 40 0,0
24.01.2020 09:00:00 -0,2 -3,9 43 23 54 29 W 42 0,0
24.01.2020 08:00:00 -0,2 -4,1 36 19 46 25 W 42 0,0
24.01.2020 07:00:00 0,1 -4,0 39 21 61 33 W 35 0,0
24.01.2020 06:00:00 0,3 -4,0 35 19 55 30 W 39 0,0
24.01.2020 05:00:00 0,4 -3,5 31 17 50 27 WSW 50 0,0
24.01.2020 04:00:00 0,5 -3,3 34 19 49 26 W 50 0,0
24.01.2020 03:00:00 0,9 -3,2 40 22 49 26 W 50 0,0
24.01.2020 02:00:00 1,2 -2,9 44 24 59 32 W 50 0,0
24.01.2020 01:00:00 1,4 -2,0 43 23 55 30 W 50 0,0
24.01.2020 00:00:00 1,8 -2,0 41 22 53 29 W 50 0,0
23.01.2020 23:00:00 1,8 -0,8 37 20 45 24 W 50 0,0
23.01.2020 22:00:00 1,8 -0,1 37 20 49 27 WSW 50 0,0
23.01.2020 21:00:00 1,7 0,1 34 18 41 22 WSW 50 0,0
23.01.2020 20:00:00 1,2 0,0 29 15 35 19 WSW 50 0,0
23.01.2020 19:00:00 0,5 -0,5 29 16 36 19 SW 50 0,0
23.01.2020 18:00:00 0,4 -0,3 26 14 30 16 SSW 50 0,0

tt = Température de l'air
td = dewpoint
ff = Vitesse du vent
fx = gusts
dd = Direction du vent
vv = visibility
rr = Quantités de précipitations

stations d'obs. à proximité